Nearby METAR Reports

 

KSJC - San Jose, California, USA
Distance from station: NO 14km
aktuell: 05/07/2020 01:53
Few Clouds
Few Clouds
 Wind von NNW
Wind: NNW 26 km/h
Temperatur: 31°C
Taupunkt: 10°C
Luftfeuchte: 27%
Luftdruck: 1014.9 hPa
Clouds: Few Clouds
Visibility: 16 km
Cloud details: Few Clouds 610 m
2020/07/04 23:53 KSJC 042353Z 33014KT 10SM FEW020 31/10 A2997 RMK AO2 SLP148 FU FEW020 T03060100 10306 20244 56014
KNUQ - Moffett Nas/Mtn, California, USA
Distance from station: N 14km
aktuell: 04/07/2020 15:55
NOT Current
klar
klar
 Wind von calm
Wind: Windstill
Temperatur: 15°C
Taupunkt: 11°C
Luftfeuchte: 77%
Luftdruck: 1016.9 hPa
Clouds: klar
Visibility: 16 km
2020/07/04 13:55 KNUQ 041355Z AUTO 00000KT 10SM CLR 15/11 A3003 RMK AO2
KPAO - Palo Alto, California, USA
Distance from station: NNW 23km
aktuell: 05/07/2020 01:00
klar
klar
 Wind von NNW
Wind: NNW 22 km/h
Temperatur: 27°C
Heat Index: 27°C
Taupunkt: 13°C
Luftfeuchte: 42%
Luftdruck: 1015.6 hPa
Clouds: klar
Visibility: 16 km
2020/07/04 23:00 KPAO 042300Z 34012KT 10SM SKC 27/13 A2999 RMK LAST
 
KRHV - San Jose/Reid, California, USA
Distance from station: ONO 19km
aktuell: 05/07/2020 01:50
klar
klar
 Wind von NW
Wind: NW 19 km/h
Temperatur: 32°C
Taupunkt: 7°C
Luftfeuchte: 21%
Luftdruck: 1015.2 hPa
Clouds: klar
Visibility: 16 km
2020/07/04 23:50 KRHV 042350Z 32010KT 10SM SKC 32/07 A2998
KOAK - Oakland, California, USA
Distance from station: NNW 50km
aktuell: 05/07/2020 01:53
klar
klar
 Wind von WNW
Wind: WNW 20 km/h
Temperatur: 25°C
Taupunkt: 12°C
Luftfeuchte: 44%
Luftdruck: 1015.9 hPa
Clouds: klar
Visibility: 16 km
2020/07/04 23:53 KOAK 042353Z 29011KT 10SM CLR 25/12 A3000 RMK AO2 SLP158 T02500117 10267 20206 58014
KSQL - San Carlos Airpo, California, USA
Distance from station: NW 34km
aktuell: 05/07/2020 01:47
klar
klar
 Wind von WSW
Wind: WSW 17 km/h
Temperatur: 29°C
Taupunkt: 9°C
Luftfeuchte: 29%
Luftdruck: 1015.6 hPa
Clouds: klar
Visibility: 16 km
2020/07/04 23:47 KSQL 042347Z 25009KT 10SM SKC 29/09 A2999
 
KSFO - San Francisco, California, USA
Distance from station: NW 49km
aktuell: 05/07/2020 01:56
klar
klar
 Wind von WNW
Wind: WNW 37 km/h
Temperatur: 23°C
Taupunkt: 8°C
Luftfeuchte: 38%
Luftdruck: 1015.6 hPa
Clouds: klar
Visibility: 16 km
2020/07/04 23:56 KSFO 042356Z 30020KT 10SM CLR 23/08 A2999 RMK AO2 PK WND 28027/2329 SLP156 T02280083 10261 20194 58012 $
KE16 - San Martin, California, USA
Distance from station: OSO 43km
aktuell: 09/06/2020 22:20
NOT Current
klar
klar
 Wind von NW
Wind: NW 17 km/h
Temperatur: 30°C
Taupunkt: 2°C
Luftfeuchte: 17%
Luftdruck: 1020.3 hPa
Clouds: klar
Visibility: 16 km
2020/06/09 20:20 KE16 092020Z AUTO 31009KT 290V350 10SM CLR 30/02 A3013 RMK AO2 PWINO PNO
KWVI - Watsonville, California, USA
Distance from station: SSO 44km
aktuell: 05/07/2020 01:53
klar
klar
 Wind von S
Wind: S 13 km/h
Temperatur: 21°C
Taupunkt: 14°C
Luftfeuchte: 64%
Luftdruck: 1015.9 hPa
Clouds: klar
Visibility: 16 km
2020/07/04 23:53 KWVI 042353Z AUTO 18007KT 10SM CLR 21/14 A3000 RMK AO2 SLP158 T02110139 10267 20211 56012
 
KHAF - Half Moon Bay, California, USA
Distance from station: WNW 50km
aktuell: 05/07/2020 02:00
klar
klar
 Wind von NW
Wind: NW 22 km/h, Windböen: 28 km/h
Temperatur: 18°C
Taupunkt: 10°C
Luftfeuchte: 60%
Luftdruck: 1017.3 hPa
Clouds: klar
Visibility: 13 km
2020/07/05 00:00 KHAF 050000Z AUTO 31012G15KT 8SM CLR 18/10 A3004 RMK AO2
KHWD - Hayward, California, USA
Distance from station: N 44km
aktuell: 05/07/2020 01:54
klar
klar
 Wind von W
Wind: W 20 km/h
Temperatur: 25°C
Taupunkt: 13°C
Luftfeuchte: 47%
Luftdruck: 1015.6 hPa
Clouds: klar
Visibility: 16 km
2020/07/04 23:54 KHWD 042354Z 28011KT 10SM CLR 25/13 A2999 RMK AO2 SLP163 T02500128 10278 20222 56012
KLVK - Livermore, California, USA
Distance from station: NNO 51km
aktuell: 05/07/2020 01:53
klar
klar
 Wind von W
Wind: W 22 km/h
Temperatur: 34°C
Taupunkt: 8°C
Luftfeuchte: 20%
Luftdruck: 1014.6 hPa
Clouds: klar
Visibility: 16 km
2020/07/04 23:53 KLVK 042353Z AUTO 28012KT 10SM CLR 34/08 A2996 RMK AO2 SLP140 T03390078 10350 20267 56013